KONT/ONT METAR and TAF weather

Enter ICAO airport designator
Station Type Date Time Source
KONT METAR 2024/04/17 19:53 UTC NOAA

KONT 171953Z 00000KT 10SM SCT300 26/03 A2998 RMK AO2 SLP142 T02610028 $


Station Type Date Time Source
KONT Decoded METAR 2024/04/17 19:53 UTC NOAA

ONTARIO INTERNATIONAL AIRPORT, CA, United States (KONT) 34-03N 117-35W 275M
Apr 17, 2024 - 03:53 PM EDT / 2024.04.17 1953 UTC
Wind: Calm:0
Visibility: 10 mile(s):0
Sky conditions: partly cloudy
Temperature: 79.0 F (26.1 C)
Dew Point: 37.0 F (2.8 C)
Relative Humidity: 22%
Pressure (altimeter): 29.98 in. Hg (1015 hPa)
ob: KONT 171953Z 00000KT 10SM SCT300 26/03 A2998 RMK AO2 SLP142 T02610028
cycle: 20

Station Type Date Time Source
KONT TAF 2024/04/17 18:22 UTC NOAA